KETN

Eastland Municipal Airport

Eastland, Texas, USA
METAR KETN 250515Z AUTO 16005KT 10SM CLR 24/18 A3003 RMK AO2 T02390182
Observed Flight Rules
May-25 @ 05:15 UTC (9 minutes ago) Visual Flight Rules
Wind Visibility Clouds
160° at 5 knots 10 miles
  • Clear skies
Temperatures Readings
Current 24°C / 75°F
Dewpoint 18°C / 64°F
Humidity 69%
Altimeter 30.03" Hg
Pressure 1017 hPa
Elevation 446
METAR KETN 250515Z AUTO 16005KT 10SM CLR 24/18 A3003 RMK AO2 T02390182
Observed Flight Rules
May-25 @ 05:15 UTC
(9 minutes ago)
VFR
Wind Visibility
160° at 5 knots 10 miles
Clouds
  • Clear skies
Temperature Dewpoint
24°C / 75°F 18°C / 64°F
Humidity Altimeter Pressure
69% 30.03" Hg 1017 hPa